Time,TemperatureF,DewpointF,PressureIn,WindDirection,WindDirectionDegrees,WindSpeedMPH,WindSpeedGustMPH,Humidity,HourlyPrecipIn,Conditions,Clouds,dailyrainin,SoftwareType,DateUTC
2013-08-13 00:09:00,61.7,57.0,30.06,NE,40,3.0,6.0,83,0.00,,,0.00,weatherlink.com 1.10,2013-08-13 05:09:00,
2013-08-13 00:24:00,61.2,57.0,30.06,NE,45,4.0,5.0,85,0.00,,,0.00,weatherlink.com 1.10,2013-08-13 05:24:00,
2013-08-13 00:39:00,61.1,57.0,30.07,NE,52,2.0,4.0,86,0.00,,,0.00,weatherlink.com 1.10,2013-08-13 05:39:00,
2013-08-13 00:54:00,60.9,57.0,30.07,NNE,27,2.0,3.0,87,0.00,,,0.00,weatherlink.com 1.10,2013-08-13 05:54:00,
2013-08-13 01:09:00,60.5,57.0,30.07,NNE,17,1.0,3.0,88,0.00,,,0.00,weatherlink.com 1.10,2013-08-13 06:09:00,
2013-08-13 01:24:00,60.2,57.0,30.08,NE,38,0.0,2.0,88,0.00,,,0.00,weatherlink.com 1.10,2013-08-13 06:24:00,
2013-08-13 01:39:00,59.6,56.0,30.08,NE,38,0.0,1.0,89,0.00,,,0.00,weatherlink.com 1.10,2013-08-13 06:39:00,
2013-08-13 01:54:00,59.0,56.0,30.09,NNE,29,1.0,2.0,90,0.00,,,0.00,weatherlink.com 1.10,2013-08-13 06:54:00,
2013-08-13 02:09:00,58.5,56.0,30.09,NNW,346,1.0,3.0,91,0.00,,,0.00,weatherlink.com 1.10,2013-08-13 07:09:00,
2013-08-13 02:24:00,58.2,56.0,30.09,NE,37,2.0,2.0,92,0.00,,,0.00,weatherlink.com 1.10,2013-08-13 07:24:00,
2013-08-13 02:39:00,57.8,56.0,30.10,NNW,341,0.0,1.0,93,0.00,,,0.00,weatherlink.com 1.10,2013-08-13 07:39:00,
2013-08-13 02:54:00,57.8,56.0,30.10,NNE,23,0.0,3.0,93,0.00,,,0.00,weatherlink.com 1.10,2013-08-13 07:54:00,
2013-08-13 03:10:00,57.6,56.0,30.10,NNE,22,2.0,3.0,93,0.00,,,0.00,weatherlink.com 1.10,2013-08-13 08:10:00,
2013-08-13 03:25:00,57.3,55.0,30.11,NNE,17,0.0,2.0,93,0.00,,,0.00,weatherlink.com 1.10,2013-08-13 08:25:00,
2013-08-13 03:40:00,57.0,55.0,30.11,NNE,17,1.0,2.0,94,0.00,,,0.00,weatherlink.com 1.10,2013-08-13 08:40:00,
2013-08-13 03:55:00,56.8,55.0,30.11,NNE,20,1.0,2.0,94,0.00,,,0.00,weatherlink.com 1.10,2013-08-13 08:55:00,
2013-08-13 04:10:00,56.5,55.0,30.11,NNE,20,0.0,2.0,94,0.00,,,0.00,weatherlink.com 1.10,2013-08-13 09:10:00,
2013-08-13 04:25:00,56.1,54.0,30.11,NNE,19,0.0,2.0,94,0.00,,,0.00,weatherlink.com 1.10,2013-08-13 09:25:00,
2013-08-13 04:40:00,56.0,55.0,30.11,NNE,19,2.0,3.0,95,0.00,,,0.00,weatherlink.com 1.10,2013-08-13 09:40:00,
2013-08-13 04:55:00,55.8,54.0,30.11,NE,34,2.0,4.0,95,0.00,,,0.00,weatherlink.com 1.10,2013-08-13 09:55:00,
2013-08-13 05:10:00,55.5,54.0,30.11,NNE,30,2.0,4.0,95,0.00,,,0.00,weatherlink.com 1.10,2013-08-13 10:10:00,
2013-08-13 05:25:00,55.1,54.0,30.11,NNE,17,2.0,3.0,95,0.00,,,0.00,weatherlink.com 1.10,2013-08-13 10:25:00,
2013-08-13 05:40:00,54.7,53.0,30.11,NNE,16,0.0,3.0,95,0.00,,,0.00,weatherlink.com 1.10,2013-08-13 10:40:00,
2013-08-13 05:55:00,54.5,53.0,30.12,NNE,16,1.0,2.0,95,0.00,,,0.00,weatherlink.com 1.10,2013-08-13 10:55:00,
2013-08-13 06:10:00,54.1,53.0,30.12,North,351,1.0,2.0,96,0.00,,,0.00,weatherlink.com 1.10,2013-08-13 11:10:00,
2013-08-13 06:25:00,53.9,53.0,30.13,NNE,26,2.0,3.0,96,0.00,,,0.00,weatherlink.com 1.10,2013-08-13 11:25:00,
2013-08-13 06:40:00,54.4,53.0,30.13,NNW,347,1.0,2.0,96,0.00,,,0.00,weatherlink.com 1.10,2013-08-13 11:40:00,
2013-08-13 06:55:00,55.0,54.0,30.14,NNW,345,1.0,2.0,95,0.00,,,0.00,weatherlink.com 1.10,2013-08-13 11:55:00,
2013-08-13 07:10:00,55.7,54.0,30.14,NNW,345,1.0,2.0,94,0.00,,,0.00,weatherlink.com 1.10,2013-08-13 12:10:00,
2013-08-13 07:25:00,56.2,54.0,30.15,NNE,30,2.0,3.0,93,0.00,,,0.00,weatherlink.com 1.10,2013-08-13 12:25:00,
2013-08-13 07:40:00,56.9,55.0,30.15,NNW,348,1.0,3.0,92,0.00,,,0.00,weatherlink.com 1.10,2013-08-13 12:40:00,
2013-08-13 07:55:00,57.5,55.0,30.16,NNE,12,1.0,3.0,91,0.00,,,0.00,weatherlink.com 1.10,2013-08-13 12:55:00,
2013-08-13 08:10:00,58.4,56.0,30.17,North,351,1.0,3.0,90,0.00,,,0.00,weatherlink.com 1.10,2013-08-13 13:10:00,
2013-08-13 08:25:00,59.3,56.0,30.17,NW,325,0.0,2.0,88,0.00,,,0.00,weatherlink.com 1.10,2013-08-13 13:25:00,
2013-08-13 08:40:00,59.7,55.0,30.17,NE,44,3.0,5.0,85,0.00,,,0.00,weatherlink.com 1.10,2013-08-13 13:40:00,
2013-08-13 08:55:00,60.3,56.0,30.18,NE,40,0.0,5.0,84,0.00,,,0.00,weatherlink.com 1.10,2013-08-13 13:55:00,
2013-08-13 09:10:00,61.3,56.0,30.18,NNW,342,2.0,5.0,82,0.00,,,0.00,weatherlink.com 1.10,2013-08-13 14:10:00,
2013-08-13 09:25:00,62.7,56.0,30.18,NE,40,3.0,4.0,80,0.00,,,0.00,weatherlink.com 1.10,2013-08-13 14:25:00,
2013-08-13 09:40:00,64.0,56.0,30.18,North,351,3.0,5.0,75,0.00,,,0.00,weatherlink.com 1.10,2013-08-13 14:40:00,
2013-08-13 09:55:00,64.5,55.0,30.19,NNW,344,2.0,5.0,71,0.00,,,0.00,weatherlink.com 1.10,2013-08-13 14:55:00,
2013-08-13 10:10:00,65.7,54.0,30.19,NNW,342,2.0,4.0,67,0.00,,,0.00,weatherlink.com 1.10,2013-08-13 15:10:00,
2013-08-13 10:25:00,66.6,52.0,30.19,NNE,20,3.0,5.0,59,0.00,,,0.00,weatherlink.com 1.10,2013-08-13 15:25:00,
2013-08-13 10:41:00,67.2,52.0,30.19,NW,313,3.0,7.0,58,0.00,,,0.00,weatherlink.com 1.10,2013-08-13 15:41:00,
2013-08-13 10:56:00,67.9,52.0,30.19,NNW,346,2.0,7.0,57,0.00,,,0.00,weatherlink.com 1.10,2013-08-13 15:56:00,
2013-08-13 11:11:00,68.0,52.0,30.19,North,356,3.0,9.0,56,0.00,,,0.00,weatherlink.com 1.10,2013-08-13 16:11:00,
2013-08-13 11:26:00,68.7,51.0,30.18,NNE,30,4.0,8.0,54,0.00,,,0.00,weatherlink.com 1.10,2013-08-13 16:26:00,
2013-08-13 11:41:00,69.7,51.0,30.18,NW,306,1.0,6.0,51,0.00,,,0.00,weatherlink.com 1.10,2013-08-13 16:41:00,
2013-08-13 11:56:00,69.7,50.0,30.18,NNW,342,1.0,10.0,49,0.00,,,0.00,weatherlink.com 1.10,2013-08-13 16:56:00,
2013-08-13 12:26:00,70.4,49.0,30.18,NW,318,1.0,8.0,46,0.00,,,0.00,weatherlink.com 1.10,2013-08-13 17:26:00,
2013-08-13 12:41:00,70.7,50.0,30.18,WSW,251,2.0,8.0,49,0.00,,,0.00,weatherlink.com 1.10,2013-08-13 17:41:00,
2013-08-13 12:56:00,71.3,50.0,30.18,WNW,298,2.0,8.0,48,0.00,,,0.00,weatherlink.com 1.10,2013-08-13 17:56:00,
2013-08-13 13:11:00,72.5,50.0,30.18,NNE,14,5.0,6.0,46,0.00,,,0.00,weatherlink.com 1.10,2013-08-13 18:11:00,
2013-08-13 13:26:00,71.2,50.0,30.18,North,5,5.0,9.0,48,0.00,,,0.00,weatherlink.com 1.10,2013-08-13 18:26:00,
2013-08-13 13:41:00,72.2,50.0,30.18,NNE,12,8.0,8.0,45,0.00,,,0.00,weatherlink.com 1.10,2013-08-13 18:41:00,
2013-08-13 13:56:00,71.8,49.0,30.17,NNW,328,5.0,8.0,45,0.00,,,0.00,weatherlink.com 1.10,2013-08-13 18:56:00,
2013-08-13 14:11:00,72.1,49.0,30.17,West,273,2.0,10.0,44,0.00,,,0.00,weatherlink.com 1.10,2013-08-13 19:11:00,
2013-08-13 14:26:00,72.3,48.0,30.17,NNW,332,3.0,9.0,43,0.00,,,0.00,weatherlink.com 1.10,2013-08-13 19:26:00,
2013-08-13 14:41:00,72.1,49.0,30.16,North,359,2.0,9.0,44,0.00,,,0.00,weatherlink.com 1.10,2013-08-13 19:41:00,
2013-08-13 14:56:00,73.2,48.0,30.16,North,6,4.0,12.0,41,0.00,,,0.00,weatherlink.com 1.10,2013-08-13 19:56:00,
2013-08-13 15:11:00,73.5,49.0,30.16,NE,37,0.0,9.0,42,0.00,,,0.00,weatherlink.com 1.10,2013-08-13 20:11:00,
2013-08-13 15:26:00,73.3,48.0,30.16,WNW,292,0.0,8.0,41,0.00,,,0.00,weatherlink.com 1.10,2013-08-13 20:26:00,
2013-08-13 15:41:00,73.5,47.0,30.15,NE,49,5.0,8.0,39,0.00,,,0.00,weatherlink.com 1.10,2013-08-13 20:41:00,
2013-08-13 15:56:00,73.2,47.0,30.15,North,6,3.0,9.0,40,0.00,,,0.00,weatherlink.com 1.10,2013-08-13 20:56:00,
2013-08-13 16:11:00,73.3,47.0,30.15,NE,40,4.0,11.0,39,0.00,,,0.00,weatherlink.com 1.10,2013-08-13 21:11:00,
2013-08-13 16:26:00,73.3,48.0,30.15,North,349,3.0,9.0,41,0.00,,,0.00,weatherlink.com 1.10,2013-08-13 21:26:00,
2013-08-13 16:41:00,73.4,47.0,30.15,NNW,332,1.0,8.0,39,0.00,,,0.00,weatherlink.com 1.10,2013-08-13 21:41:00,
2013-08-13 16:56:00,74.1,45.0,30.15,NNW,339,3.0,12.0,36,0.00,,,0.00,weatherlink.com 1.10,2013-08-13 21:56:00,
2013-08-13 17:11:00,73.8,45.0,30.14,NNE,23,2.0,9.0,36,0.00,,,0.00,weatherlink.com 1.10,2013-08-13 22:11:00,
2013-08-13 17:26:00,74.0,47.0,30.14,NW,318,1.0,7.0,38,0.00,,,0.00,weatherlink.com 1.10,2013-08-13 22:26:00,
2013-08-13 17:41:00,73.9,45.0,30.13,NNE,14,4.0,9.0,36,0.00,,,0.00,weatherlink.com 1.10,2013-08-13 22:41:00,
2013-08-13 17:56:00,73.6,46.0,30.13,NNE,12,2.0,8.0,38,0.00,,,0.00,weatherlink.com 1.10,2013-08-13 22:56:00,
2013-08-13 18:11:00,73.5,46.0,30.13,NNE,31,5.0,8.0,37,0.00,,,0.00,weatherlink.com 1.10,2013-08-13 23:11:00,
2013-08-13 18:26:00,73.0,48.0,30.12,WNW,303,1.0,5.0,41,0.00,,,0.00,weatherlink.com 1.10,2013-08-13 23:26:00,
2013-08-13 18:41:00,73.1,48.0,30.12,NNE,18,2.0,7.0,41,0.00,,,0.00,weatherlink.com 1.10,2013-08-13 23:41:00,
2013-08-13 18:56:00,72.6,47.0,30.12,North,356,4.0,6.0,41,0.00,,,0.00,weatherlink.com 1.10,2013-08-13 23:56:00,
2013-08-13 19:11:00,71.7,48.0,30.12,North,353,0.0,7.0,43,0.00,,,0.00,weatherlink.com 1.10,2013-08-14 00:11:00,
2013-08-13 19:26:00,71.6,49.0,30.12,NNW,344,2.0,5.0,45,0.00,,,0.00,weatherlink.com 1.10,2013-08-14 00:26:00,
2013-08-13 19:41:00,71.8,49.0,30.12,NNW,348,1.0,4.0,44,0.00,,,0.00,weatherlink.com 1.10,2013-08-14 00:41:00,
2013-08-13 19:56:00,71.1,50.0,30.12,ENE,68,1.0,3.0,47,0.00,,,0.00,weatherlink.com 1.10,2013-08-14 00:56:00,
2013-08-13 20:11:00,69.9,51.0,30.12,ENE,66,0.0,1.0,51,0.00,,,0.00,weatherlink.com 1.10,2013-08-14 01:11:00,
2013-08-13 20:26:00,68.0,51.0,30.12,ENE,67,0.0,0.0,54,0.00,,,0.00,weatherlink.com 1.10,2013-08-14 01:26:00,
2013-08-13 20:41:00,66.2,50.0,30.13,ENE,67,0.0,0.0,57,0.00,,,0.00,weatherlink.com 1.10,2013-08-14 01:41:00,
2013-08-13 20:56:00,64.3,50.0,30.14,ENE,67,0.0,0.0,60,0.00,,,0.00,weatherlink.com 1.10,2013-08-14 01:56:00,
2013-08-13 21:11:00,64.7,50.0,30.14,ENE,67,0.0,0.0,59,0.00,,,0.00,weatherlink.com 1.10,2013-08-14 02:11:00,
2013-08-13 21:26:00,63.8,50.0,30.14,ENE,67,0.0,0.0,61,0.00,,,0.00,weatherlink.com 1.10,2013-08-14 02:26:00,
2013-08-13 21:41:00,63.0,50.0,30.15,ENE,67,0.0,0.0,62,0.00,,,0.00,weatherlink.com 1.10,2013-08-14 02:41:00,
2013-08-13 21:56:00,61.4,49.0,30.15,ENE,67,0.0,0.0,65,0.00,,,0.00,weatherlink.com 1.10,2013-08-14 02:56:00,
2013-08-13 22:11:00,60.1,49.0,30.15,ENE,67,0.0,0.0,68,0.00,,,0.00,weatherlink.com 1.10,2013-08-14 03:11:00,
2013-08-13 22:26:00,60.4,49.0,30.15,ENE,67,0.0,0.0,67,0.00,,,0.00,weatherlink.com 1.10,2013-08-14 03:26:00,
2013-08-13 22:41:00,61.9,49.0,30.15,ENE,66,0.0,0.0,63,0.00,,,0.00,weatherlink.com 1.10,2013-08-14 03:41:00,
2013-08-13 22:56:00,61.1,52.0,30.16,ENE,67,0.0,0.0,72,0.00,,,0.00,weatherlink.com 1.10,2013-08-14 03:56:00,
2013-08-13 23:11:00,58.3,52.0,30.16,SW,234,1.0,3.0,80,0.00,,,0.00,weatherlink.com 1.10,2013-08-14 04:11:00,
2013-08-13 23:26:00,57.9,51.0,30.16,SW,234,0.0,1.0,78,0.00,,,0.00,weatherlink.com 1.10,2013-08-14 04:26:00,
2013-08-13 23:41:00,59.2,54.0,30.16,SW,235,1.0,2.0,82,0.00,,,0.00,weatherlink.com 1.10,2013-08-14 04:41:00,
2013-08-13 23:56:00,58.3,54.0,30.16,SW,234,0.0,1.0,86,0.00,,,0.00,weatherlink.com 1.10,2013-08-14 04:56:00,